createdAt,value
2022-10-30T00:01:09.912Z,100.00
2022-10-30T00:03:36.858Z,100.00
2022-10-30T00:06:06.444Z,100.00
2022-10-30T00:08:33.736Z,100.00
2022-10-30T00:11:09.867Z,100.00
2022-10-30T00:13:37.997Z,100.00
2022-10-30T00:16:08.673Z,100.00
2022-10-30T00:18:42.103Z,100.00
2022-10-30T00:21:15.616Z,100.00
2022-10-30T00:23:50.443Z,100.00
2022-10-30T00:26:19.382Z,100.00
2022-10-30T00:28:53.982Z,100.00
2022-10-30T00:31:22.136Z,100.00
2022-10-30T00:33:54.468Z,100.00
2022-10-30T00:36:22.092Z,100.00
2022-10-30T00:38:50.465Z,100.00
2022-10-30T00:41:26.528Z,100.00
2022-10-30T00:43:53.777Z,100.00
2022-10-30T00:46:40.625Z,100.00
2022-10-30T00:49:16.871Z,100.00
2022-10-30T00:51:49.936Z,100.00
2022-10-30T00:54:18.879Z,100.00
2022-10-30T00:56:47.952Z,100.00
2022-10-30T00:59:23.011Z,100.00
2022-10-30T01:01:51.147Z,100.00
2022-10-30T01:04:18.910Z,100.00
2022-10-30T01:06:48.887Z,100.00
2022-10-30T01:09:16.138Z,100.00
2022-10-30T01:11:43.170Z,100.00
2022-10-30T01:14:12.069Z,100.00
2022-10-30T01:17:16.415Z,100.00
2022-10-30T01:19:56.809Z,100.00
2022-10-30T01:23:10.469Z,100.00
2022-10-30T01:26:14.775Z,100.00
2022-10-30T01:29:03.723Z,100.00
2022-10-30T01:31:49.103Z,100.00
2022-10-30T01:34:22.774Z,100.00
2022-10-30T01:37:14.084Z,100.00
2022-10-30T01:39:41.674Z,100.00
2022-10-30T01:42:46.433Z,100.00
2022-10-30T01:45:31.177Z,100.00
2022-10-30T01:48:10.875Z,100.00
2022-10-30T01:50:37.827Z,100.00
2022-10-30T01:53:36.232Z,100.00
2022-10-30T01:56:39.995Z,100.00
2022-10-30T01:59:24.265Z,100.00
2022-10-30T02:01:52.132Z,100.00
2022-10-30T02:04:19.854Z,100.00
2022-10-30T02:06:46.882Z,100.00
2022-10-30T02:09:16.426Z,100.00
2022-10-30T02:11:46.163Z,100.00
2022-10-30T02:14:15.894Z,100.00
2022-10-30T02:16:50.128Z,100.00
2022-10-30T02:19:17.643Z,100.00
2022-10-30T02:21:44.789Z,100.00
2022-10-30T02:24:11.830Z,100.00
2022-10-30T02:26:39.042Z,100.00
2022-10-30T02:29:05.983Z,100.00
2022-10-30T02:31:33.021Z,100.00
2022-10-30T02:33:59.946Z,100.00
2022-10-30T02:36:26.935Z,100.00
2022-10-30T02:38:55.184Z,100.00
2022-10-30T02:41:23.944Z,100.00
2022-10-30T02:43:53.517Z,100.00
2022-10-30T02:46:20.821Z,100.00
2022-10-30T02:48:47.804Z,100.00
2022-10-30T02:51:15.126Z,100.00
2022-10-30T02:53:42.142Z,100.00
2022-10-30T02:56:12.625Z,100.00
2022-10-30T02:58:39.918Z,100.00
2022-10-30T03:01:19.950Z,100.00
2022-10-30T03:03:47.057Z,100.00
2022-10-30T03:06:16.883Z,100.00
2022-10-30T03:08:44.412Z,100.00
2022-10-30T03:11:17.141Z,100.00
2022-10-30T03:13:46.408Z,100.00
2022-10-30T03:16:20.388Z,100.00
2022-10-30T03:18:48.538Z,100.00
2022-10-30T03:21:19.267Z,100.00
2022-10-30T03:23:46.514Z,100.00
2022-10-30T03:26:13.455Z,100.00
2022-10-30T03:28:40.393Z,100.00
2022-10-30T03:31:14.606Z,100.00
2022-10-30T03:33:41.621Z,100.00
2022-10-30T03:36:11.914Z,100.00
2022-10-30T03:38:39.318Z,100.00
2022-10-30T03:41:06.964Z,100.00
2022-10-30T03:43:34.355Z,100.00
2022-10-30T03:46:01.515Z,100.00
2022-10-30T03:48:29.633Z,100.00
2022-10-30T03:50:58.662Z,100.00
2022-10-30T03:53:26.937Z,100.00
2022-10-30T03:55:59.566Z,100.00
2022-10-30T03:58:28.413Z,100.00
2022-10-30T04:01:01.508Z,100.00
2022-10-30T04:03:28.646Z,100.00
2022-10-30T04:05:55.570Z,100.00
2022-10-30T04:08:22.808Z,100.00
2022-10-30T04:10:49.906Z,100.00
2022-10-30T04:13:18.057Z,100.00
2022-10-30T04:15:45.060Z,100.00
2022-10-30T04:18:14.138Z,100.00
2022-10-30T04:20:41.047Z,100.00
2022-10-30T04:23:12.623Z,100.00
2022-10-30T04:25:39.551Z,100.00
2022-10-30T04:28:06.679Z,100.00
2022-10-30T04:30:35.420Z,100.00
2022-10-30T04:33:04.940Z,100.00
2022-10-30T04:35:34.666Z,100.00
2022-10-30T04:38:13.534Z,100.00
2022-10-30T04:40:45.197Z,100.00
2022-10-30T04:43:13.510Z,100.00
2022-10-30T04:45:41.168Z,100.00
2022-10-30T04:48:16.977Z,100.00
2022-10-30T04:50:44.456Z,100.00
2022-10-30T04:53:18.177Z,100.00
2022-10-30T04:55:45.356Z,100.00
2022-10-30T04:58:13.548Z,100.00
2022-10-30T05:00:41.230Z,100.00
2022-10-30T05:03:16.091Z,100.00
2022-10-30T05:05:43.280Z,100.00
2022-10-30T05:08:10.256Z,100.00
2022-10-30T05:10:40.772Z,100.00
2022-10-30T05:13:12.359Z,100.00
2022-10-30T05:15:39.328Z,100.00
2022-10-30T05:18:06.342Z,100.00
2022-10-30T05:20:33.294Z,100.00
2022-10-30T05:23:00.415Z,100.00
2022-10-30T05:25:28.116Z,100.00
2022-10-30T05:28:03.778Z,100.00
2022-10-30T05:30:34.305Z,100.00
2022-10-30T05:33:06.088Z,100.00
2022-10-30T05:35:35.309Z,100.00
2022-10-30T05:38:05.891Z,100.00
2022-10-30T05:40:34.514Z,100.00
2022-10-30T05:43:01.912Z,100.00
2022-10-30T05:45:29.103Z,100.00
2022-10-30T05:48:05.340Z,100.00
2022-10-30T05:50:33.336Z,100.00
2022-10-30T05:53:03.478Z,100.00
2022-10-30T05:55:31.195Z,100.00
2022-10-30T05:57:59.971Z,100.00
2022-10-30T06:00:30.095Z,100.00
2022-10-30T06:03:06.217Z,100.00
2022-10-30T06:05:36.133Z,100.00
2022-10-30T06:08:05.187Z,100.00
2022-10-30T06:10:32.722Z,100.00
2022-10-30T06:13:02.871Z,100.00
2022-10-30T06:15:31.302Z,100.00
2022-10-30T06:17:58.954Z,100.00
2022-10-30T06:20:29.877Z,100.00
2022-10-30T06:23:09.984Z,100.00
2022-10-30T06:25:41.416Z,100.00
2022-10-30T06:28:11.506Z,100.00
2022-10-30T06:30:38.702Z,100.00
2022-10-30T06:33:07.199Z,100.00
2022-10-30T06:35:34.231Z,100.00
2022-10-30T06:38:02.146Z,100.00
2022-10-30T06:40:32.585Z,100.00
2022-10-30T06:42:59.858Z,100.00
2022-10-30T06:45:27.261Z,100.00
2022-10-30T06:47:54.342Z,99.97
2022-10-30T06:50:22.444Z,100.00
2022-10-30T06:52:49.652Z,100.00
2022-10-30T06:55:17.619Z,100.00
2022-10-30T06:57:44.564Z,100.00
2022-10-30T07:00:12.893Z,100.00
2022-10-30T07:02:39.856Z,100.00
2022-10-30T07:05:07.154Z,100.00
2022-10-30T07:07:34.111Z,99.86
2022-10-30T07:10:01.008Z,100.00
2022-10-30T07:12:27.964Z,100.00
2022-10-30T07:14:54.914Z,99.67
2022-10-30T07:17:21.873Z,98.68
2022-10-30T07:19:48.834Z,98.90
2022-10-30T07:22:15.798Z,99.13
2022-10-30T07:24:42.743Z,98.78
2022-10-30T07:27:09.644Z,98.36
2022-10-30T07:29:36.535Z,98.43
2022-10-30T07:32:03.984Z,98.23
2022-10-30T07:34:31.618Z,98.27
2022-10-30T07:36:58.794Z,97.99
2022-10-30T07:39:25.741Z,97.16
2022-10-30T07:41:52.632Z,96.90
2022-10-30T07:44:19.576Z,95.09
2022-10-30T07:46:46.614Z,96.32
2022-10-30T07:49:13.644Z,96.34
2022-10-30T07:51:40.540Z,95.69
2022-10-30T07:54:07.531Z,96.05
2022-10-30T07:56:34.452Z,96.32
2022-10-30T07:59:01.437Z,96.18
2022-10-30T08:01:28.455Z,95.40
2022-10-30T08:03:55.434Z,93.74
2022-10-30T08:06:24.754Z,93.73
2022-10-30T08:08:54.061Z,94.55
2022-10-30T08:11:21.066Z,93.04
2022-10-30T08:13:48.049Z,92.91
2022-10-30T08:16:15.023Z,93.41
2022-10-30T08:18:42.678Z,91.58
2022-10-30T08:21:10.467Z,90.38
2022-10-30T08:23:37.561Z,90.11
2022-10-30T08:26:05.513Z,89.98
2022-10-30T08:28:33.389Z,90.10
2022-10-30T08:31:02.383Z,90.58
2022-10-30T08:33:29.605Z,90.23
2022-10-30T08:35:59.585Z,89.62
2022-10-30T08:38:28.124Z,88.95
2022-10-30T08:40:55.174Z,88.30
2022-10-30T08:43:22.710Z,88.42
2022-10-30T08:45:49.645Z,88.04
2022-10-30T08:48:17.170Z,87.61
2022-10-30T08:50:45.003Z,87.59
2022-10-30T08:53:14.737Z,86.83
2022-10-30T08:55:42.623Z,85.36
2022-10-30T08:58:09.552Z,85.82
2022-10-30T09:00:36.571Z,85.44
2022-10-30T09:03:04.016Z,86.92
2022-10-30T09:05:31.294Z,86.50
2022-10-30T09:08:01.456Z,86.06
2022-10-30T09:10:29.499Z,85.38
2022-10-30T09:13:01.880Z,85.64
2022-10-30T09:15:29.130Z,85.94
2022-10-30T09:18:02.085Z,85.09
2022-10-30T09:20:29.805Z,85.36
2022-10-30T09:22:57.124Z,84.72
2022-10-30T09:25:24.444Z,84.94
2022-10-30T09:27:51.415Z,84.64
2022-10-30T09:30:18.488Z,84.83
2022-10-30T09:32:45.488Z,85.07
2022-10-30T09:35:13.123Z,85.80
2022-10-30T09:37:40.553Z,86.07
2022-10-30T09:40:08.776Z,85.56
2022-10-30T09:42:49.753Z,85.14
2022-10-30T09:45:42.942Z,83.55
2022-10-30T09:48:47.486Z,83.40
2022-10-30T09:51:43.237Z,81.95
2022-10-30T09:54:43.892Z,80.75
2022-10-30T09:57:24.799Z,80.15
2022-10-30T10:00:23.397Z,79.53
2022-10-30T10:03:12.044Z,78.26
2022-10-30T10:05:56.231Z,76.34
2022-10-30T10:08:34.221Z,73.94
2022-10-30T10:11:14.388Z,72.48
2022-10-30T10:13:50.562Z,72.99
2022-10-30T10:16:25.253Z,73.09
2022-10-30T10:19:14.052Z,70.97
2022-10-30T10:21:49.343Z,69.90
2022-10-30T10:24:39.000Z,70.13
2022-10-30T10:27:49.470Z,70.02
2022-10-30T10:30:21.383Z,68.22
2022-10-30T10:32:52.621Z,68.01
2022-10-30T10:35:45.869Z,67.92
2022-10-30T10:38:26.786Z,67.14
2022-10-30T10:41:25.900Z,66.67
2022-10-30T10:44:01.386Z,67.01
2022-10-30T10:46:46.876Z,66.68
2022-10-30T10:49:35.780Z,65.94
2022-10-30T10:52:25.822Z,65.50
2022-10-30T10:55:00.172Z,66.25
2022-10-30T10:57:38.287Z,63.58
2022-10-30T11:00:15.958Z,64.53
2022-10-30T11:03:10.820Z,64.40
2022-10-30T11:05:53.276Z,63.50
2022-10-30T11:08:26.411Z,63.38
2022-10-30T11:11:02.360Z,61.54
2022-10-30T11:13:35.036Z,59.57
2022-10-30T11:16:41.000Z,57.36
2022-10-30T11:19:09.539Z,55.76
2022-10-30T11:21:45.588Z,55.59
2022-10-30T11:24:36.224Z,55.54
2022-10-30T11:27:23.778Z,54.31
2022-10-30T11:29:54.978Z,54.92
2022-10-30T11:32:27.344Z,52.85
2022-10-30T11:35:07.444Z,52.78
2022-10-30T11:37:37.660Z,53.60
2022-10-30T11:40:12.524Z,53.71
2022-10-30T11:43:05.070Z,53.15
2022-10-30T11:45:41.191Z,53.09
2022-10-30T11:48:31.628Z,53.30
2022-10-30T11:51:03.928Z,53.07
2022-10-30T11:53:40.939Z,52.53
2022-10-30T11:56:22.902Z,52.07
2022-10-30T11:59:02.803Z,52.32
2022-10-30T12:01:34.901Z,52.11
2022-10-30T12:04:23.442Z,51.64
2022-10-30T12:07:18.153Z,51.15
2022-10-30T12:09:47.821Z,50.51
2022-10-30T12:12:25.703Z,51.29
2022-10-30T12:14:53.382Z,51.43
2022-10-30T12:17:21.821Z,52.76
2022-10-30T12:19:52.922Z,52.94
2022-10-30T12:22:33.319Z,51.90
2022-10-30T12:25:06.972Z,51.61
2022-10-30T12:27:37.410Z,51.28
2022-10-30T12:30:14.666Z,50.72
2022-10-30T12:32:44.291Z,50.57
2022-10-30T12:35:36.884Z,51.36
2022-10-30T12:38:10.955Z,52.33
2022-10-30T12:40:46.804Z,52.12
2022-10-30T12:43:27.553Z,52.82
2022-10-30T12:46:14.701Z,53.75
2022-10-30T12:48:57.902Z,54.60
2022-10-30T12:51:35.578Z,54.42
2022-10-30T12:54:23.367Z,54.57
2022-10-30T12:57:14.558Z,56.02
2022-10-30T12:59:58.422Z,55.95
2022-10-30T13:02:33.698Z,54.92
2022-10-30T13:05:20.882Z,54.63
2022-10-30T13:08:00.352Z,53.57
2022-10-30T13:10:34.789Z,54.46
2022-10-30T13:13:20.399Z,54.29
2022-10-30T13:15:57.616Z,54.88
2022-10-30T13:18:31.440Z,54.94
2022-10-30T13:21:12.085Z,55.20
2022-10-30T13:24:02.100Z,55.61
2022-10-30T13:26:59.326Z,56.58
2022-10-30T13:29:36.438Z,57.19
2022-10-30T13:32:59.961Z,56.94
2022-10-30T13:35:58.571Z,57.25
2022-10-30T13:38:45.961Z,57.11
2022-10-30T13:41:51.192Z,58.06
2022-10-30T13:44:29.847Z,58.42
2022-10-30T13:47:21.918Z,58.53
2022-10-30T13:50:47.203Z,58.65
2022-10-30T13:53:21.680Z,58.79
2022-10-30T13:55:50.237Z,58.44
2022-10-30T13:58:35.208Z,59.10
2022-10-30T14:01:17.965Z,59.79
2022-10-30T14:04:40.234Z,60.68
2022-10-30T14:07:34.589Z,60.18
2022-10-30T14:10:11.200Z,61.09
2022-10-30T14:12:57.234Z,61.94
2022-10-30T14:15:30.225Z,62.55
2022-10-30T14:18:12.274Z,62.97
2022-10-30T14:20:44.266Z,63.34
2022-10-30T14:23:24.053Z,63.44
2022-10-30T14:26:03.120Z,63.74
2022-10-30T14:28:40.632Z,64.29
2022-10-30T14:31:11.196Z,64.54
2022-10-30T14:33:46.150Z,65.35
2022-10-30T14:36:49.966Z,64.64
2022-10-30T14:39:16.798Z,65.65
2022-10-30T14:42:05.417Z,66.22
2022-10-30T14:44:38.234Z,66.56
2022-10-30T14:47:39.482Z,66.56
2022-10-30T14:50:28.310Z,66.77
2022-10-30T14:53:35.845Z,67.60
2022-10-30T14:59:15.405Z,67.91
2022-10-30T15:02:06.369Z,69.08
2022-10-30T15:05:17.225Z,68.87
2022-10-30T15:07:54.115Z,69.24
2022-10-30T15:10:36.247Z,69.83
2022-10-30T15:13:22.519Z,70.26
2022-10-30T15:16:09.173Z,71.07
2022-10-30T15:18:39.698Z,70.97
2022-10-30T15:21:08.179Z,71.63
2022-10-30T15:23:37.203Z,71.56
2022-10-30T15:26:19.396Z,71.29
2022-10-30T15:28:52.393Z,72.65
2022-10-30T15:31:28.355Z,72.72
2022-10-30T15:33:57.810Z,73.11
2022-10-30T15:36:40.334Z,73.81
2022-10-30T15:39:21.899Z,74.20
2022-10-30T15:41:58.266Z,74.89
2022-10-30T15:44:39.000Z,75.01
2022-10-30T15:47:13.974Z,74.86
2022-10-30T15:49:57.272Z,75.77
2022-10-30T15:52:29.678Z,76.06
2022-10-30T15:55:09.725Z,76.12
2022-10-30T15:58:03.573Z,75.84
2022-10-30T16:00:36.322Z,76.79
2022-10-30T16:03:06.337Z,77.74
2022-10-30T16:05:34.713Z,78.06
2022-10-30T16:08:04.019Z,78.55
2022-10-30T16:10:36.298Z,79.21
2022-10-30T16:13:04.299Z,78.87
2022-10-30T16:15:35.968Z,79.12
2022-10-30T16:18:27.753Z,80.12
2022-10-30T16:20:58.240Z,80.10
2022-10-30T16:23:25.194Z,81.17
2022-10-30T16:25:58.999Z,81.83
2022-10-30T16:28:31.683Z,81.80
2022-10-30T16:31:14.363Z,81.52
2022-10-30T16:33:44.656Z,81.45
2022-10-30T16:36:16.934Z,81.70
2022-10-30T16:38:47.607Z,81.52
2022-10-30T16:41:15.056Z,81.29
2022-10-30T16:43:49.640Z,81.86
2022-10-30T16:46:16.411Z,82.67
2022-10-30T16:48:56.747Z,81.44
2022-10-30T16:51:24.139Z,83.64
2022-10-30T16:53:52.843Z,84.03
2022-10-30T16:56:28.029Z,84.08
2022-10-30T16:59:05.937Z,84.02
2022-10-30T17:01:33.828Z,83.71
2022-10-30T17:04:01.298Z,84.93
2022-10-30T17:06:41.214Z,85.83
2022-10-30T17:09:20.118Z,85.57
2022-10-30T17:12:06.124Z,86.02
2022-10-30T17:14:49.541Z,85.19
2022-10-30T17:17:35.956Z,85.13
2022-10-30T17:20:29.965Z,86.03
2022-10-30T17:23:18.516Z,85.82
2022-10-30T17:25:46.087Z,87.26
2022-10-30T17:28:36.281Z,86.80
2022-10-30T17:31:18.079Z,86.92
2022-10-30T17:34:20.822Z,87.32
2022-10-30T17:36:48.942Z,87.96
2022-10-30T17:39:16.418Z,88.57
2022-10-30T17:41:43.791Z,88.31
2022-10-30T17:44:22.933Z,88.29
2022-10-30T17:46:52.110Z,88.28
2022-10-30T17:49:28.160Z,88.31
2022-10-30T17:51:55.520Z,88.04
2022-10-30T17:54:22.703Z,88.73
2022-10-30T17:56:50.063Z,89.24
2022-10-30T17:59:17.333Z,89.05
2022-10-30T18:01:44.411Z,90.24
2022-10-30T18:04:20.766Z,91.24
2022-10-30T18:06:49.176Z,91.09
2022-10-30T18:09:16.192Z,90.73
2022-10-30T18:11:43.243Z,91.59
2022-10-30T18:14:11.748Z,90.98
2022-10-30T18:16:39.364Z,89.99
2022-10-30T18:19:11.103Z,90.53
2022-10-30T18:21:38.468Z,90.48
2022-10-30T18:24:15.091Z,90.37
2022-10-30T18:26:42.591Z,91.30
2022-10-30T18:29:10.468Z,91.38
2022-10-30T18:31:38.927Z,90.86
2022-10-30T18:34:21.667Z,91.72
2022-10-30T18:36:49.271Z,91.01
2022-10-30T18:39:16.526Z,91.52
2022-10-30T18:41:46.196Z,90.65
2022-10-30T18:44:18.332Z,91.92
2022-10-30T18:46:46.185Z,93.12
2022-10-30T18:49:13.472Z,93.67
2022-10-30T18:51:40.609Z,94.39
2022-10-30T18:54:16.836Z,94.88
2022-10-30T18:56:44.036Z,94.84
2022-10-30T18:59:11.063Z,94.78
2022-10-30T19:01:38.209Z,95.26
2022-10-30T19:04:10.651Z,95.36
2022-10-30T19:06:38.992Z,94.86
2022-10-30T19:09:06.566Z,94.94
2022-10-30T19:11:36.258Z,94.75
2022-10-30T19:14:11.324Z,94.94
2022-10-30T19:16:38.338Z,94.73
2022-10-30T19:19:05.621Z,95.43
2022-10-30T19:21:34.601Z,95.81
2022-10-30T19:24:03.062Z,94.87
2022-10-30T19:26:29.990Z,95.49
2022-10-30T19:28:56.942Z,95.14
2022-10-30T19:31:23.917Z,94.79
2022-10-30T19:33:56.163Z,94.32
2022-10-30T19:36:36.650Z,94.08
2022-10-30T19:39:16.780Z,94.38
2022-10-30T19:41:43.900Z,95.67
2022-10-30T19:44:11.085Z,97.18
2022-10-30T19:46:38.102Z,97.93
2022-10-30T19:49:18.713Z,97.72
2022-10-30T19:51:46.343Z,98.33
2022-10-30T19:54:13.333Z,97.30
2022-10-30T19:56:43.061Z,96.85
2022-10-30T19:59:15.065Z,97.22
2022-10-30T20:01:43.745Z,97.11
2022-10-30T20:04:10.868Z,97.92
2022-10-30T20:06:37.905Z,96.91
2022-10-30T20:09:05.486Z,96.75
2022-10-30T20:11:32.548Z,96.26
2022-10-30T20:13:59.512Z,97.39
2022-10-30T20:16:26.506Z,98.02
2022-10-30T20:18:53.486Z,97.71
2022-10-30T20:21:20.742Z,98.49
2022-10-30T20:23:47.751Z,97.94
2022-10-30T20:26:29.530Z,97.80
2022-10-30T20:28:57.400Z,98.27
2022-10-30T20:31:24.406Z,98.06
2022-10-30T20:33:51.321Z,98.65
2022-10-30T20:36:18.259Z,99.44
2022-10-30T20:38:45.269Z,99.84
2022-10-30T20:41:25.852Z,100.00
2022-10-30T20:43:53.004Z,98.42
2022-10-30T20:46:21.265Z,98.46
2022-10-30T20:48:48.692Z,99.60
2022-10-30T20:51:15.791Z,99.99
2022-10-30T20:53:42.764Z,99.46
2022-10-30T20:56:11.266Z,99.66
2022-10-30T20:58:38.227Z,99.02
2022-10-30T21:01:05.256Z,99.05
2022-10-30T21:03:32.224Z,98.13
2022-10-30T21:06:01.930Z,98.42
2022-10-30T21:08:33.716Z,99.12
2022-10-30T21:11:03.315Z,100.00
2022-10-30T21:13:30.785Z,100.00
2022-10-30T21:16:07.789Z,100.00
2022-10-30T21:18:35.120Z,100.00
2022-10-30T21:21:04.594Z,100.00
2022-10-30T21:23:31.996Z,100.00
2022-10-30T21:26:09.691Z,100.00
2022-10-30T21:28:36.674Z,100.00
2022-10-30T21:31:07.706Z,100.00
2022-10-30T21:33:36.559Z,100.00
2022-10-30T21:36:12.764Z,100.00
2022-10-30T21:38:42.281Z,100.00
2022-10-30T21:41:12.235Z,100.00
2022-10-30T21:43:39.249Z,100.00
2022-10-30T21:46:12.637Z,99.69
2022-10-30T21:48:39.668Z,98.97
2022-10-30T21:51:13.880Z,98.56
2022-10-30T21:53:41.805Z,99.22
2022-10-30T21:56:14.861Z,98.47
2022-10-30T21:58:42.320Z,97.52
2022-10-30T22:01:17.938Z,97.69
2022-10-30T22:03:45.277Z,97.54
2022-10-30T22:06:14.833Z,99.20
2022-10-30T22:08:45.512Z,100.00
2022-10-30T22:11:13.670Z,100.00
2022-10-30T22:13:41.061Z,100.00
2022-10-30T22:16:12.721Z,100.00
2022-10-30T22:18:40.256Z,100.00
2022-10-30T22:21:12.353Z,100.00
2022-10-30T22:23:40.769Z,100.00
2022-10-30T22:26:14.868Z,100.00
2022-10-30T22:28:43.243Z,100.00
2022-10-30T22:31:12.844Z,100.00
2022-10-30T22:33:40.365Z,100.00
2022-10-30T22:36:20.154Z,100.00
2022-10-30T22:38:48.244Z,100.00
2022-10-30T22:41:21.660Z,100.00
2022-10-30T22:43:49.782Z,100.00
2022-10-30T22:46:18.713Z,100.00
2022-10-30T22:48:46.084Z,100.00
2022-10-30T22:51:16.668Z,100.00
2022-10-30T22:53:46.401Z,100.00
2022-10-30T22:56:17.150Z,100.00
2022-10-30T22:58:46.283Z,100.00
2022-10-30T23:01:17.009Z,100.00
2022-10-30T23:03:45.039Z,100.00
2022-10-30T23:06:13.230Z,100.00
2022-10-30T23:08:40.250Z,100.00
2022-10-30T23:11:08.943Z,100.00
2022-10-30T23:13:36.822Z,100.00
2022-10-30T23:16:17.547Z,99.43
2022-10-30T23:18:45.348Z,100.00
2022-10-30T23:21:21.650Z,100.00
2022-10-30T23:23:49.394Z,100.00
2022-10-30T23:26:32.683Z,100.00
2022-10-30T23:29:01.213Z,100.00
2022-10-30T23:31:33.712Z,100.00
2022-10-30T23:34:03.174Z,100.00
2022-10-30T23:36:30.331Z,100.00
2022-10-30T23:39:00.657Z,100.00
2022-10-30T23:41:34.232Z,100.00
2022-10-30T23:44:12.146Z,100.00
2022-10-30T23:46:39.299Z,100.00
2022-10-30T23:49:06.309Z,100.00
2022-10-30T23:51:34.089Z,100.00
2022-10-30T23:54:01.177Z,100.00
2022-10-30T23:56:29.488Z,100.00
2022-10-30T23:58:57.695Z,100.00
